sensor_id;sensor_type;location;lat;lon;timestamp;pressure;altitude;pressure_sealevel;temperature;humidity
32330;BME280;18807;52.434;13.238;2023-09-19T00:03:33;74671.88;;;-142.05;100.00
32330;BME280;18807;52.434;13.238;2023-09-19T00:11:12;74680.03;;;-142.05;100.00
32330;BME280;18807;52.434;13.238;2023-09-19T00:18:47;74684.13;;;-142.05;100.00
32330;BME280;18807;52.434;13.238;2023-09-19T00:26:24;74688.19;;;-142.05;100.00
32330;BME280;18807;52.434;13.238;2023-09-19T00:34:03;74694.31;;;-142.05;100.00
32330;BME280;18807;52.434;13.238;2023-09-19T00:41:45;74700.44;;;-142.05;100.00
32330;BME280;18807;52.434;13.238;2023-09-19T00:49:19;74712.69;;;-142.05;100.00
32330;BME280;18807;52.434;13.238;2023-09-19T00:56:57;74716.75;;;-142.05;100.00
32330;BME280;18807;52.434;13.238;2023-09-19T01:04:31;74733.06;;;-142.05;100.00
32330;BME280;18807;52.434;13.238;2023-09-19T01:12:09;74741.25;;;-142.05;100.00
32330;BME280;18807;52.434;13.238;2023-09-19T01:20:15;74755.53;;;-142.05;100.00
32330;BME280;18807;52.434;13.238;2023-09-19T01:28:06;74757.56;;;-142.05;100.00
32330;BME280;18807;52.434;13.238;2023-09-19T01:35:46;74753.47;;;-142.05;100.00
32330;BME280;18807;52.434;13.238;2023-09-19T01:43:26;74759.59;;;-142.05;100.00
32330;BME280;18807;52.434;13.238;2023-09-19T01:51:06;74773.88;;;-142.05;100.00
32330;BME280;18807;52.434;13.238;2023-09-19T01:58:45;74780.00;;;-142.05;100.00
32330;BME280;18807;52.434;13.238;2023-09-19T02:06:24;74792.25;;;-142.05;100.00
32330;BME280;18807;52.434;13.238;2023-09-19T02:14:00;74806.53;;;-142.05;100.00
32330;BME280;18807;52.434;13.238;2023-09-19T02:21:38;74818.75;;;-142.05;100.00
32330;BME280;18807;52.434;13.238;2023-09-19T02:29:13;74824.88;;;-142.05;100.00
32330;BME280;18807;52.434;13.238;2023-09-19T02:36:50;74824.88;;;-142.05;100.00
32330;BME280;18807;52.434;13.238;2023-09-19T02:44:26;74837.13;;;-142.05;100.00
32330;BME280;18807;52.434;13.238;2023-09-19T02:52:03;74857.53;;;-142.05;100.00
32330;BME280;18807;52.434;13.238;2023-09-19T02:59:38;74865.69;;;-142.05;100.00
32330;BME280;18807;52.434;13.238;2023-09-19T03:07:15;74871.81;;;-142.05;100.00
32330;BME280;18807;52.434;13.238;2023-09-19T03:14:50;74886.09;;;-142.05;100.00
32330;BME280;18807;52.434;13.238;2023-09-19T03:22:26;74890.16;;;-142.05;100.00
32330;BME280;18807;52.434;13.238;2023-09-19T03:30:00;74894.25;;;-142.05;100.00
32330;BME280;18807;52.434;13.238;2023-09-19T03:37:40;74912.63;;;-142.05;100.00
32330;BME280;18807;52.434;13.238;2023-09-19T03:45:15;74928.94;;;-142.05;100.00
32330;BME280;18807;52.434;13.238;2023-09-19T03:52:56;74939.13;;;-142.05;100.00
32330;BME280;18807;52.434;13.238;2023-09-19T04:00:30;74947.28;;;-142.05;100.00
32330;BME280;18807;52.434;13.238;2023-09-19T04:08:06;74935.06;;;-142.05;100.00
32330;BME280;18807;52.434;13.238;2023-09-19T04:15:42;74947.28;;;-142.05;99.61
32330;BME280;18807;52.434;13.238;2023-09-19T04:23:18;74943.22;;;-142.05;99.35
32330;BME280;18807;52.434;13.238;2023-09-19T04:30:53;74955.47;;;-142.05;97.71
32330;BME280;18807;52.434;13.238;2023-09-19T04:38:31;74959.53;;;-142.05;97.04
32330;BME280;18807;52.434;13.238;2023-09-19T04:46:05;74979.94;;;-142.05;95.64
32330;BME280;18807;52.434;13.238;2023-09-19T04:53:41;74986.06;;;-142.05;92.75
32330;BME280;18807;52.434;13.238;2023-09-19T05:01:16;75000.34;;;-142.05;91.46
32330;BME280;18807;52.434;13.238;2023-09-19T05:08:52;75004.44;;;-142.05;90.46
32330;BME280;18807;52.434;13.238;2023-09-19T05:16:28;75018.72;;;-142.05;89.22
32330;BME280;18807;52.434;13.238;2023-09-19T05:24:06;75028.91;;;-142.05;89.42
32330;BME280;18807;52.434;13.238;2023-09-19T05:31:43;75035.03;;;-142.05;88.55
32330;BME280;18807;52.434;13.238;2023-09-19T05:39:18;75041.16;;;-142.05;88.18
32330;BME280;18807;52.434;13.238;2023-09-19T05:46:54;75063.59;;;-142.05;89.75
32330;BME280;18807;52.434;13.238;2023-09-19T05:54:34;75073.78;;;-142.05;89.88
32330;BME280;18807;52.434;13.238;2023-09-19T06:02:28;75084.00;;;-142.05;89.96
32330;BME280;18807;52.434;13.238;2023-09-19T06:10:46;75094.19;;;-142.05;90.68
32330;BME280;18807;52.434;13.238;2023-09-19T06:18:35;75094.19;;;-142.05;91.09
32330;BME280;18807;52.434;13.238;2023-09-19T06:26:25;75098.28;;;-142.05;87.73
32330;BME280;18807;52.434;13.238;2023-09-19T06:34:39;75086.03;;;-142.05;86.35
32330;BME280;18807;52.434;13.238;2023-09-19T06:42:55;75065.63;;;-142.05;83.61
32330;BME280;18807;52.434;13.238;2023-09-19T06:50:29;75049.31;;;-142.05;83.16
32330;BME280;18807;52.434;13.238;2023-09-19T06:58:36;75020.75;;;-142.05;79.52
32330;BME280;18807;52.434;13.238;2023-09-19T07:06:34;74988.09;;;-142.05;75.13
32330;BME280;18807;52.434;13.238;2023-09-19T07:14:16;74971.78;;;-142.05;71.02
32330;BME280;18807;52.434;13.238;2023-09-19T07:21:58;74957.50;;;-142.05;71.75
32330;BME280;18807;52.434;13.238;2023-09-19T07:30:35;74943.22;;;-142.05;69.86
32330;BME280;18807;52.434;13.238;2023-09-19T07:46:54;74937.09;;;-142.05;69.31
32330;BME280;18807;52.434;13.238;2023-09-19T07:54:59;74933.03;;;-142.05;63.70
32330;BME280;18807;52.434;13.238;2023-09-19T08:02:36;74937.09;;;-142.05;63.89
32330;BME280;18807;52.434;13.238;2023-09-19T08:10:28;74904.44;;;-142.05;61.91
32330;BME280;18807;52.434;13.238;2023-09-19T08:18:32;74918.72;;;-142.05;59.62
32330;BME280;18807;52.434;13.238;2023-09-19T08:26:28;74930.97;;;-142.05;60.27
32330;BME280;18807;52.434;13.238;2023-09-19T08:34:41;74904.44;;;-142.05;58.61
32330;BME280;18807;52.434;13.238;2023-09-19T08:42:58;74900.38;;;-142.05;56.60
32330;BME280;18807;52.434;13.238;2023-09-19T08:59:27;74890.16;;;-142.05;54.73
32330;BME280;18807;52.434;13.238;2023-09-19T09:15:41;74877.94;;;-142.05;52.64
32330;BME280;18807;52.434;13.238;2023-09-19T09:23:27;74843.25;;;-142.05;49.38
32330;BME280;18807;52.434;13.238;2023-09-19T09:31:25;74847.31;;;-142.05;49.74
32330;BME280;18807;52.434;13.238;2023-09-19T09:39:36;74857.53;;;-142.05;49.36
32330;BME280;18807;52.434;13.238;2023-09-19T09:56:13;74792.25;;;-142.05;47.78
32330;BME280;18807;52.434;13.238;2023-09-19T10:03:59;74757.56;;;-142.05;45.88
32330;BME280;18807;52.434;13.238;2023-09-19T10:11:46;74792.25;;;-142.05;44.43
32330;BME280;18807;52.434;13.238;2023-09-19T10:53:13;74824.88;;;-142.05;42.56
32330;BME280;18807;52.434;13.238;2023-09-19T11:00:52;74837.13;;;-142.05;43.18
32330;BME280;18807;52.434;13.238;2023-09-19T11:08:31;74845.28;;;-142.05;42.58
32330;BME280;18807;52.434;13.238;2023-09-19T11:16:07;74831.00;;;-142.05;43.30
32330;BME280;18807;52.434;13.238;2023-09-19T11:31:58;74794.28;;;-142.05;41.12
32330;BME280;18807;52.434;13.238;2023-09-19T11:39:35;74771.84;;;-142.05;40.76
32330;BME280;18807;52.434;13.238;2023-09-19T11:47:10;74773.88;;;-142.05;41.31
32330;BME280;18807;52.434;13.238;2023-09-19T11:54:54;74759.59;;;-142.05;41.59
32330;BME280;18807;52.434;13.238;2023-09-19T12:02:39;74747.34;;;-142.05;40.53
32330;BME280;18807;52.434;13.238;2023-09-19T12:10:22;74747.34;;;-142.05;40.24
32330;BME280;18807;52.434;13.238;2023-09-19T12:17:57;74731.03;;;-142.05;39.70
32330;BME280;18807;52.434;13.238;2023-09-19T12:25:42;74726.97;;;-142.05;39.05
32330;BME280;18807;52.434;13.238;2023-09-19T12:33:20;74724.91;;;-142.05;39.19
32330;BME280;18807;52.434;13.238;2023-09-19T12:41:01;74700.44;;;-142.05;39.51
32330;BME280;18807;52.434;13.238;2023-09-19T12:48:36;74702.47;;;-142.05;39.22
32330;BME280;18807;52.434;13.238;2023-09-19T12:56:13;74706.56;;;-142.05;40.14
32330;BME280;18807;52.434;13.238;2023-09-19T13:04:12;74718.78;;;-142.05;39.11
32330;BME280;18807;52.434;13.238;2023-09-19T13:11:49;74724.91;;;-142.05;39.11
32330;BME280;18807;52.434;13.238;2023-09-19T13:19:37;74710.63;;;-142.05;39.86
32330;BME280;18807;52.434;13.238;2023-09-19T13:27:14;74718.78;;;-142.05;38.93
32330;BME280;18807;52.434;13.238;2023-09-19T13:34:49;74724.91;;;-142.05;39.68
32330;BME280;18807;52.434;13.238;2023-09-19T13:42:26;74726.97;;;-142.05;39.44
32330;BME280;18807;52.434;13.238;2023-09-19T13:50:05;74714.72;;;-142.05;39.27
32330;BME280;18807;52.434;13.238;2023-09-19T13:57:42;74708.59;;;-142.05;39.28
32330;BME280;18807;52.434;13.238;2023-09-19T14:05:17;74700.44;;;-142.05;39.57
32330;BME280;18807;52.434;13.238;2023-09-19T14:12:53;74688.19;;;-142.05;39.81
32330;BME280;18807;52.434;13.238;2023-09-19T14:20:28;74682.06;;;-142.05;39.70
32330;BME280;18807;52.434;13.238;2023-09-19T14:28:06;74686.16;;;-142.05;39.64
32330;BME280;18807;52.434;13.238;2023-09-19T14:35:41;74686.16;;;-142.05;39.33
32330;BME280;18807;52.434;13.238;2023-09-19T14:43:17;74680.03;;;-142.05;39.32
32330;BME280;18807;52.434;13.238;2023-09-19T14:50:52;74669.84;;;-142.05;39.86
32330;BME280;18807;52.434;13.238;2023-09-19T14:58:29;74669.84;;;-142.05;38.71
32330;BME280;18807;52.434;13.238;2023-09-19T15:06:04;74669.84;;;-142.05;38.80
32330;BME280;18807;52.434;13.238;2023-09-19T15:14:01;74665.75;;;-142.05;38.52
32330;BME280;18807;52.434;13.238;2023-09-19T15:21:37;74663.72;;;-142.05;39.14
32330;BME280;18807;52.434;13.238;2023-09-19T15:29:13;74669.84;;;-142.05;39.68
32330;BME280;18807;52.434;13.238;2023-09-19T15:36:48;74649.44;;;-142.05;39.32
32330;BME280;18807;52.434;13.238;2023-09-19T15:44:26;74649.44;;;-142.05;39.67
32330;BME280;18807;52.434;13.238;2023-09-19T15:52:01;74639.22;;;-142.05;39.05
32330;BME280;18807;52.434;13.238;2023-09-19T15:59:37;74651.47;;;-142.05;39.51
32330;BME280;18807;52.434;13.238;2023-09-19T16:07:12;74643.31;;;-142.05;39.48
32330;BME280;18807;52.434;13.238;2023-09-19T16:14:49;74641.28;;;-142.05;39.57
32330;BME280;18807;52.434;13.238;2023-09-19T16:22:24;74665.75;;;-142.05;38.97
32330;BME280;18807;52.434;13.238;2023-09-19T16:30:00;74694.31;;;-142.05;39.85
32330;BME280;18807;52.434;13.238;2023-09-19T16:37:37;74718.78;;;-142.05;39.90
32330;BME280;18807;52.434;13.238;2023-09-19T16:45:13;74733.06;;;-142.05;39.64
32330;BME280;18807;52.434;13.238;2023-09-19T16:52:47;74767.75;;;-142.05;39.87
32330;BME280;18807;52.434;13.238;2023-09-19T17:00:23;74775.91;;;-142.05;40.49
32330;BME280;18807;52.434;13.238;2023-09-19T17:08:00;74806.53;;;-142.05;41.29
32330;BME280;18807;52.434;13.238;2023-09-19T17:15:36;74816.72;;;-142.05;41.47
32330;BME280;18807;52.434;13.238;2023-09-19T17:23:11;74841.22;;;-142.05;42.00
32330;BME280;18807;52.434;13.238;2023-09-19T17:30:50;74877.94;;;-142.05;43.00
32330;BME280;18807;52.434;13.238;2023-09-19T17:38:26;74902.41;;;-142.05;43.87
32330;BME280;18807;52.434;13.238;2023-09-19T17:46:10;74933.03;;;-142.05;44.37
32330;BME280;18807;52.434;13.238;2023-09-19T17:53:46;74949.34;;;-142.05;45.01
32330;BME280;18807;52.434;13.238;2023-09-19T18:01:23;74967.69;;;-142.05;46.40
32330;BME280;18807;52.434;13.238;2023-09-19T18:09:01;74996.25;;;-142.05;47.20
32330;BME280;18807;52.434;13.238;2023-09-19T18:16:43;75018.72;;;-142.05;48.24
32330;BME280;18807;52.434;13.238;2023-09-19T18:24:17;75041.16;;;-142.05;49.13
32330;BME280;18807;52.434;13.238;2023-09-19T18:31:53;75071.75;;;-142.05;48.72
32330;BME280;18807;52.434;13.238;2023-09-19T18:39:28;75094.19;;;-142.05;47.82
32330;BME280;18807;52.434;13.238;2023-09-19T18:47:04;75106.44;;;-142.05;47.90
32330;BME280;18807;52.434;13.238;2023-09-19T18:54:39;75116.66;;;-142.05;47.92
32330;BME280;18807;52.434;13.238;2023-09-19T19:02:16;75130.94;;;-142.05;48.59
32330;BME280;18807;52.434;13.238;2023-09-19T19:09:50;75139.09;;;-142.05;48.53
32330;BME280;18807;52.434;13.238;2023-09-19T19:17:26;75153.38;;;-142.05;49.10
32330;BME280;18807;52.434;13.238;2023-09-19T19:25:04;75165.63;;;-142.05;48.85
32330;BME280;18807;52.434;13.238;2023-09-19T19:32:40;75167.66;;;-142.05;50.09
32330;BME280;18807;52.434;13.238;2023-09-19T19:40:15;75175.81;;;-142.05;50.80
32330;BME280;18807;52.434;13.238;2023-09-19T19:47:51;75194.19;;;-142.05;51.46
32330;BME280;18807;52.434;13.238;2023-09-19T19:55:25;75200.31;;;-142.05;52.16
32330;BME280;18807;52.434;13.238;2023-09-19T20:03:02;75212.53;;;-142.05;51.84
32330;BME280;18807;52.434;13.238;2023-09-19T20:10:37;75220.72;;;-142.05;51.81
32330;BME280;18807;52.434;13.238;2023-09-19T20:18:13;75228.88;;;-142.05;52.18
32330;BME280;18807;52.434;13.238;2023-09-19T20:25:49;75230.91;;;-142.05;51.64
32330;BME280;18807;52.434;13.238;2023-09-19T20:33:25;75220.72;;;-142.05;51.58
32330;BME280;18807;52.434;13.238;2023-09-19T20:40:59;75220.72;;;-142.05;51.30
32330;BME280;18807;52.434;13.238;2023-09-19T20:48:36;75212.53;;;-142.05;50.92
32330;BME280;18807;52.434;13.238;2023-09-19T20:56:14;75218.66;;;-142.05;51.01
32330;BME280;18807;52.434;13.238;2023-09-19T21:03:53;75212.53;;;-142.05;51.19
32330;BME280;18807;52.434;13.238;2023-09-19T21:11:28;75214.59;;;-142.05;51.02
32330;BME280;18807;52.434;13.238;2023-09-19T21:19:05;75216.63;;;-142.05;51.03
32330;BME280;18807;52.434;13.238;2023-09-19T21:26:40;75214.59;;;-142.05;50.96
32330;BME280;18807;52.434;13.238;2023-09-19T21:34:16;75224.78;;;-142.05;51.60
32330;BME280;18807;52.434;13.238;2023-09-19T21:41:51;75220.72;;;-142.05;51.72
32330;BME280;18807;52.434;13.238;2023-09-19T21:49:28;75232.94;;;-142.05;52.10
32330;BME280;18807;52.434;13.238;2023-09-19T21:57:03;75235.00;;;-142.05;52.21
32330;BME280;18807;52.434;13.238;2023-09-19T22:04:39;75232.94;;;-142.05;52.18
32330;BME280;18807;52.434;13.238;2023-09-19T22:12:13;75237.03;;;-142.05;52.93
32330;BME280;18807;52.434;13.238;2023-09-19T22:19:49;75243.16;;;-142.05;53.34
32330;BME280;18807;52.434;13.238;2023-09-19T22:27:26;75255.38;;;-142.05;53.73
32330;BME280;18807;52.434;13.238;2023-09-19T22:35:04;75253.34;;;-142.05;53.85
32330;BME280;18807;52.434;13.238;2023-09-19T22:42:39;75265.59;;;-142.05;53.83
32330;BME280;18807;52.434;13.238;2023-09-19T22:50:15;75267.63;;;-142.05;53.93
32330;BME280;18807;52.434;13.238;2023-09-19T22:57:52;75269.69;;;-142.05;54.24
32330;BME280;18807;52.434;13.238;2023-09-19T23:05:34;75275.78;;;-142.05;55.31
32330;BME280;18807;52.434;13.238;2023-09-19T23:13:11;75281.91;;;-142.05;55.85
32330;BME280;18807;52.434;13.238;2023-09-19T23:20:55;75294.16;;;-142.05;56.08
32330;BME280;18807;52.434;13.238;2023-09-19T23:28:37;75298.25;;;-142.05;56.50
32330;BME280;18807;52.434;13.238;2023-09-19T23:36:17;75310.47;;;-142.05;56.73
32330;BME280;18807;52.434;13.238;2023-09-19T23:43:51;75314.56;;;-142.05;56.86
32330;BME280;18807;52.434;13.238;2023-09-19T23:51:27;75328.84;;;-142.05;57.31
32330;BME280;18807;52.434;13.238;2023-09-19T23:59:03;75334.97;;;-142.05;57.69
